Time;durP1;ratioP1;P1;durP2;ratioP2;P2;SDS_P1;SDS_P2;PMS_P1;PMS_P2;Temp;Humidity;BMP_temperature;BMP_pressure;BME280_temperature;BME280_humidity;BME280_pressure;Samples;Min_cycle;Max_cycle;Signal;HPM_P1;HPM_P2
2022/10/28 00:01:02;;;;;;;14.35;7.80;;;16.40;84.90;;;;;;5031383;28;20033;-68
2022/10/28 00:03:28;;;;;;;11.27;6.93;;;16.40;84.90;;;;;;5035055;28;20037;-68
2022/10/28 00:06:03;;;;;;;16.20;7.50;;;16.30;84.90;;;;;;5029404;28;20033;-68
2022/10/28 00:08:29;;;;;;;13.10;7.03;;;16.30;84.90;;;;;;5036584;28;20034;-68
2022/10/28 00:11:04;;;;;;;12.65;6.45;;;16.30;84.90;;;;;;5019293;28;20206;-68
2022/10/28 00:13:30;;;;;;;11.30;6.68;;;16.30;84.90;;;;;;5010548;28;20025;-68
2022/10/28 00:16:03;;;;;;;13.82;7.07;;;16.30;84.90;;;;;;5018260;28;20032;-68
2022/10/28 00:18:29;;;;;;;14.48;6.88;;;16.30;84.80;;;;;;5010220;28;20188;-68
2022/10/28 00:21:00;;;;;;;13.27;6.53;;;16.20;84.80;;;;;;5036559;28;20053;-68
2022/10/28 00:23:26;;;;;;;16.10;7.22;;;16.20;84.80;;;;;;5021197;28;20382;-68
2022/10/28 00:25:51;;;;;;;11.93;6.75;;;16.30;84.80;;;;;;5032117;28;20095;-68
2022/10/28 00:28:18;;;;;;;10.93;6.65;;;16.20;84.80;;;;;;5036085;28;20461;-68
2022/10/28 00:30:44;;;;;;;11.73;6.40;;;16.20;84.80;;;;;;5023760;28;20028;-68
2022/10/28 00:33:09;;;;;;;12.80;6.82;;;16.20;84.80;;;;;;5016079;28;20033;-68
2022/10/28 00:35:35;;;;;;;11.93;7.28;;;16.20;84.80;;;;;;5015036;28;20032;-68
2022/10/28 00:38:00;;;;;;;18.02;7.00;;;16.10;84.70;;;;;;5015019;28;20430;-68
2022/10/28 00:40:26;;;;;;;11.48;6.35;;;16.20;84.70;;;;;;5014972;28;20152;-68
2022/10/28 00:42:52;;;;;;;14.20;6.30;;;16.10;84.70;;;;;;5015985;28;20350;-68
2022/10/28 00:45:17;;;;;;;15.63;7.28;;;16.10;84.70;;;;;;5011197;28;20054;-68
2022/10/28 00:47:57;;;;;;;10.48;6.03;;;16.10;84.70;;;;;;5014685;28;20073;-68
2022/10/28 00:50:47;;;;;;;13.40;6.07;;;16.10;84.60;;;;;;5014734;28;20057;-68
2022/10/28 00:53:21;;;;;;;12.60;6.65;;;16.10;84.60;;;;;;5014039;28;20025;-68
2022/10/28 00:55:48;;;;;;;13.02;6.50;;;16.10;84.60;;;;;;5012234;28;20030;-68
2022/10/28 00:58:14;;;;;;;13.23;6.43;;;16.00;84.60;;;;;;5015138;28;20038;-68
2022/10/28 01:00:40;;;;;;;13.60;6.85;;;16.00;84.60;;;;;;5011200;28;20039;-68
2022/10/28 01:03:06;;;;;;;15.68;7.32;;;16.10;84.60;;;;;;5014367;28;20048;-68
2022/10/28 01:05:36;;;;;;;14.35;7.18;;;16.00;84.60;;;;;;5015114;28;20061;-68
2022/10/28 01:08:03;;;;;;;12.27;7.00;;;16.00;84.60;;;;;;5014384;28;20026;-68
2022/10/28 01:10:47;;;;;;;11.40;6.18;;;16.00;84.60;;;;;;5014501;28;20022;-68
2022/10/28 01:13:31;;;;;;;11.52;5.72;;;16.00;84.60;;;;;;5014624;28;20053;-68
2022/10/28 01:16:05;;;;;;;10.45;6.60;;;16.00;84.60;;;;;;5014861;28;20096;-68
2022/10/28 01:18:35;;;;;;;12.60;7.00;;;16.00;84.60;;;;;;5013793;28;20041;-68
2022/10/28 01:21:22;;;;;;;11.88;6.32;;;15.90;84.60;;;;;;5011411;28;20422;-68
2022/10/28 01:24:18;;;;;;;13.20;7.00;;;15.90;84.60;;;;;;5005816;28;20521;-68
2022/10/28 01:27:25;;;;;;;10.35;6.75;;;15.90;84.60;;;;;;5029372;28;20104;-68
2022/10/28 01:29:54;;;;;;;12.75;6.68;;;15.90;84.50;;;;;;5010688;28;20034;-68
2022/10/28 01:32:30;;;;;;;12.65;6.57;;;15.90;84.60;;;;;;5014788;28;20337;-68
2022/10/28 01:35:07;;;;;;;11.05;6.78;;;15.90;84.60;;;;;;5010832;28;20041;-68
2022/10/28 01:37:59;;;;;;;14.55;7.03;;;15.90;84.60;;;;;;5014280;28;20029;-68
2022/10/28 01:40:52;;;;;;;12.77;6.53;;;15.80;84.50;;;;;;5014146;28;20080;-68
2022/10/28 01:43:21;;;;;;;12.35;6.75;;;15.90;84.60;;;;;;5012225;28;20076;-68
2022/10/28 01:45:52;;;;;;;14.43;6.50;;;15.80;84.50;;;;;;5013558;28;20120;-68
2022/10/28 01:48:24;;;;;;;11.40;6.72;;;15.80;84.50;;;;;;5012285;28;20332;-68
2022/10/28 01:51:03;;;;;;;10.93;6.55;;;15.80;84.50;;;;;;5041078;28;20052;-68
2022/10/28 01:53:33;;;;;;;16.13;7.60;;;15.80;84.50;;;;;;5029642;28;20062;-68
2022/10/28 01:56:06;;;;;;;15.10;7.53;;;15.80;84.50;;;;;;5019894;28;20113;-68
2022/10/28 01:58:34;;;;;;;15.32;6.93;;;15.80;84.50;;;;;;5024549;28;20200;-68
2022/10/28 02:01:03;;;;;;;13.45;7.18;;;15.80;84.50;;;;;;5031932;28;20029;-68
2022/10/28 02:03:29;;;;;;;11.75;7.05;;;15.80;84.50;;;;;;5031148;28;20088;-67
2022/10/28 02:05:56;;;;;;;12.57;7.10;;;15.80;84.60;;;;;;5017190;28;20030;-68
2022/10/28 02:08:36;;;;;;;14.60;6.88;;;15.80;84.50;;;;;;5034335;28;20447;-67
2022/10/28 02:11:20;;;;;;;12.18;6.20;;;15.80;84.50;;;;;;5038223;28;20035;-68
2022/10/28 02:13:53;;;;;;;12.38;6.60;;;15.80;84.50;;;;;;5022665;28;20361;-67
2022/10/28 02:16:18;;;;;;;11.95;6.82;;;15.80;84.50;;;;;;5018721;28;20030;-68
2022/10/28 02:18:55;;;;;;;11.57;6.20;;;15.70;84.40;;;;;;5033827;28;20488;-67
2022/10/28 02:21:41;;;;;;;12.48;7.22;;;15.70;84.40;;;;;;5030243;28;20061;-67
2022/10/28 02:24:28;;;;;;;13.13;7.60;;;15.70;84.40;;;;;;5024706;28;20379;-68
2022/10/28 02:27:07;;;;;;;14.23;7.90;;;15.70;84.40;;;;;;5027458;28;20040;-68
2022/10/28 02:29:49;;;;;;;15.35;7.60;;;15.70;84.50;;;;;;5029528;28;20407;-67
2022/10/28 02:32:21;;;;;;;13.90;7.13;;;15.70;84.50;;;;;;5035733;28;20022;-68
2022/10/28 02:34:48;;;;;;;13.45;7.32;;;15.60;84.50;;;;;;5019866;28;20064;-67
2022/10/28 02:37:26;;;;;;;15.63;7.20;;;15.70;84.60;;;;;;5034803;28;20454;-67
2022/10/28 02:39:56;;;;;;;13.13;7.35;;;15.60;84.60;;;;;;5021799;28;20038;-68
2022/10/28 02:42:30;;;;;;;13.32;7.85;;;15.60;84.60;;;;;;5016900;28;20065;-67
2022/10/28 02:45:05;;;;;;;13.30;7.50;;;15.70;84.70;;;;;;5014931;28;20512;-67
2022/10/28 02:47:34;;;;;;;11.25;7.00;;;15.60;84.60;;;;;;5017989;28;20339;-67
2022/10/28 02:50:05;;;;;;;12.05;7.72;;;15.70;84.60;;;;;;5015844;28;20029;-68
2022/10/28 02:52:33;;;;;;;12.18;7.90;;;15.70;84.60;;;;;;5017749;28;20036;-67
2022/10/28 02:55:03;;;;;;;17.23;7.53;;;15.70;84.70;;;;;;5015463;28;20030;-68
2022/10/28 02:57:32;;;;;;;11.52;7.40;;;15.60;84.60;;;;;;5016579;28;20033;-68
2022/10/28 03:00:03;;;;;;;11.68;6.82;;;15.70;84.70;;;;;;5015723;28;20436;-68
2022/10/28 03:02:29;;;;;;;11.30;6.97;;;15.60;84.60;;;;;;5016874;28;20034;-67
2022/10/28 03:04:55;;;;;;;10.95;6.82;;;15.60;84.60;;;;;;5018633;28;20044;-67
2022/10/28 03:07:20;;;;;;;13.23;7.53;;;15.60;84.70;;;;;;5017919;28;20034;-68
2022/10/28 03:09:46;;;;;;;11.05;7.13;;;15.60;84.60;;;;;;5015747;28;20018;-67
2022/10/28 03:12:12;;;;;;;13.95;8.18;;;15.60;84.60;;;;;;5013057;28;20555;-68
2022/10/28 03:14:37;;;;;;;12.13;6.80;;;15.60;84.60;;;;;;5012981;28;20023;-67
2022/10/28 03:17:03;;;;;;;11.85;6.75;;;15.60;84.60;;;;;;5015717;28;20061;-67
2022/10/28 03:19:29;;;;;;;14.65;7.20;;;15.50;84.50;;;;;;5016706;28;20053;-68
2022/10/28 03:21:55;;;;;;;12.40;7.20;;;15.50;84.50;;;;;;5018915;28;20034;-67
2022/10/28 03:24:21;;;;;;;11.23;6.70;;;15.50;84.50;;;;;;5000154;28;20081;-68
2022/10/28 03:26:47;;;;;;;12.02;7.60;;;15.50;84.50;;;;;;5012157;28;20124;-68
2022/10/28 03:29:12;;;;;;;16.73;6.57;;;15.50;84.50;;;;;;5009028;28;20030;-68
2022/10/28 03:31:38;;;;;;;10.63;6.85;;;15.50;84.50;;;;;;5015655;28;20022;-68
2022/10/28 03:34:04;;;;;;;12.30;6.65;;;15.50;84.50;;;;;;5012469;28;20045;-67
2022/10/28 03:36:29;;;;;;;11.73;7.00;;;15.50;84.50;;;;;;5016435;28;20357;-68
2022/10/28 03:38:55;;;;;;;10.65;6.22;;;15.50;84.50;;;;;;5016044;28;20025;-67
2022/10/28 03:41:21;;;;;;;13.70;7.03;;;15.50;84.50;;;;;;5007238;28;20463;-68
2022/10/28 03:43:46;;;;;;;10.85;6.63;;;15.50;84.50;;;;;;5014181;28;20037;-68
2022/10/28 03:46:12;;;;;;;11.48;6.95;;;15.40;84.40;;;;;;5015664;28;20030;-67
2022/10/28 03:48:37;;;;;;;14.25;7.00;;;15.50;84.50;;;;;;5014957;28;20034;-67
2022/10/28 03:51:03;;;;;;;13.10;6.72;;;15.50;84.50;;;;;;5021395;28;20061;-68
2022/10/28 03:53:29;;;;;;;12.38;7.35;;;15.50;84.50;;;;;;5013841;28;20069;-68
2022/10/28 03:55:56;;;;;;;11.65;7.30;;;15.50;84.50;;;;;;4983091;28;20038;-67
2022/10/28 03:58:23;;;;;;;13.93;6.75;;;15.50;84.50;;;;;;5001734;28;20473;-67
2022/10/28 04:00:49;;;;;;;11.18;6.78;;;15.50;84.50;;;;;;5000780;28;20030;-68
2022/10/28 04:03:16;;;;;;;10.95;6.95;;;15.50;84.50;;;;;;4998714;28;20038;-68
2022/10/28 04:05:42;;;;;;;12.73;6.93;;;15.40;84.40;;;;;;4999680;28;20333;-68
2022/10/28 04:08:07;;;;;;;11.73;6.90;;;15.40;84.40;;;;;;5000609;28;20040;-68
2022/10/28 04:10:33;;;;;;;12.48;7.03;;;15.50;84.50;;;;;;4998060;28;20038;-68
2022/10/28 04:13:04;;;;;;;12.32;7.03;;;15.40;84.40;;;;;;4984465;28;20022;-68
2022/10/28 04:15:30;;;;;;;12.63;7.40;;;15.40;84.50;;;;;;5008939;28;20465;-68
2022/10/28 04:17:56;;;;;;;13.20;7.40;;;15.40;84.50;;;;;;5015843;28;20038;-68
2022/10/28 04:20:23;;;;;;;14.57;7.05;;;15.40;84.50;;;;;;5009421;28;20037;-68
2022/10/28 04:22:48;;;;;;;13.25;7.28;;;15.40;84.50;;;;;;5013405;28;20030;-68
2022/10/28 04:25:14;;;;;;;13.68;6.95;;;15.40;84.50;;;;;;5016131;28;20060;-68
2022/10/28 04:27:40;;;;;;;12.32;6.57;;;15.40;84.50;;;;;;5011888;28;21352;-67
2022/10/28 04:30:06;;;;;;;13.75;7.20;;;15.40;84.50;;;;;;5012575;28;20033;-67
2022/10/28 04:32:32;;;;;;;11.95;6.55;;;15.40;84.50;;;;;;5029790;28;20034;-68
2022/10/28 04:34:57;;;;;;;10.88;6.53;;;15.30;84.50;;;;;;5013526;28;20084;-67
2022/10/28 04:37:23;;;;;;;12.52;7.35;;;15.40;84.60;;;;;;5021214;28;20091;-68
2022/10/28 04:39:49;;;;;;;12.45;6.68;;;15.30;84.50;;;;;;5015366;28;20121;-68
2022/10/28 04:42:15;;;;;;;14.52;6.38;;;15.30;84.50;;;;;;5018547;28;20120;-67
2022/10/28 04:44:41;;;;;;;12.32;6.75;;;15.30;84.60;;;;;;5010109;28;20061;-68
2022/10/28 04:47:07;;;;;;;11.68;7.20;;;15.30;84.50;;;;;;5022797;28;20497;-68
2022/10/28 04:49:32;;;;;;;12.32;6.40;;;15.30;84.50;;;;;;5018843;28;20129;-67
2022/10/28 04:51:58;;;;;;;11.40;6.57;;;15.30;84.50;;;;;;5023174;28;20044;-68
2022/10/28 04:54:23;;;;;;;10.88;6.28;;;15.20;84.40;;;;;;5014607;28;20112;-67
2022/10/28 04:56:49;;;;;;;11.68;6.50;;;15.30;84.50;;;;;;5016626;28;20030;-68
2022/10/28 04:59:15;;;;;;;13.85;5.85;;;15.20;84.50;;;;;;5018468;28;20026;-67
2022/10/28 05:01:40;;;;;;;10.18;5.88;;;15.20;84.40;;;;;;5020305;28;20484;-67
2022/10/28 05:04:06;;;;;;;13.30;6.28;;;15.20;84.40;;;;;;5014273;28;20018;-68
2022/10/28 05:06:31;;;;;;;11.48;6.50;;;15.20;84.40;;;;;;5011615;28;20022;-68
2022/10/28 05:08:57;;;;;;;12.10;7.10;;;15.20;84.40;;;;;;5013892;28;20034;-68
2022/10/28 05:11:23;;;;;;;10.73;6.15;;;15.20;84.30;;;;;;5020269;28;20031;-67
2022/10/28 05:13:48;;;;;;;11.50;6.40;;;15.20;84.30;;;;;;5017211;28;20358;-68
2022/10/28 05:16:14;;;;;;;13.65;6.13;;;15.10;84.20;;;;;;5012798;28;20074;-68
2022/10/28 05:18:39;;;;;;;11.70;6.95;;;15.10;84.30;;;;;;5011724;28;20053;-67
2022/10/28 05:21:05;;;;;;;12.13;6.45;;;15.10;84.30;;;;;;5021305;28;20026;-66
2022/10/28 05:23:31;;;;;;;13.23;6.70;;;15.10;84.30;;;;;;5013175;28;20021;-66
2022/10/28 05:25:57;;;;;;;12.55;6.45;;;15.10;84.20;;;;;;5012941;28;20040;-66
2022/10/28 05:28:23;;;;;;;16.40;5.95;;;15.10;84.20;;;;;;5017237;28;20371;-67
2022/10/28 05:30:48;;;;;;;11.13;6.25;;;15.00;84.10;;;;;;5029386;28;20101;-67
2022/10/28 05:33:14;;;;;;;10.80;6.03;;;15.10;84.20;;;;;;5019648;28;20060;-67
2022/10/28 05:35:39;;;;;;;11.75;6.90;;;15.00;84.20;;;;;;5013726;28;20034;-67
2022/10/28 05:38:05;;;;;;;12.35;6.28;;;15.00;84.10;;;;;;5011505;28;20370;-67
2022/10/28 05:40:32;;;;;;;12.98;6.93;;;15.00;84.10;;;;;;5012748;28;20425;-67
2022/10/28 05:42:59;;;;;;;14.98;7.13;;;15.00;84.10;;;;;;5015070;28;20053;-67
2022/10/28 05:45:24;;;;;;;9.48;6.72;;;15.00;84.00;;;;;;5029805;28;20419;-67
2022/10/28 05:47:50;;;;;;;18.95;7.00;;;15.00;84.10;;;;;;5015274;28;20048;-66
2022/10/28 05:50:19;;;;;;;11.90;6.50;;;14.90;84.00;;;;;;5012274;28;20116;-67
2022/10/28 05:52:49;;;;;;;10.95;6.05;;;14.90;84.00;;;;;;5013458;28;20030;-67
2022/10/28 05:55:19;;;;;;;12.87;6.13;;;14.90;84.00;;;;;;5013777;28;20153;-67
2022/10/28 05:57:49;;;;;;;10.20;5.80;;;14.90;84.10;;;;;;5012234;28;20034;-67
2022/10/28 06:00:17;;;;;;;13.00;6.35;;;14.90;84.10;;;;;;5017215;28;20080;-66
2022/10/28 06:02:42;;;;;;;12.90;6.95;;;14.90;84.10;;;;;;5010439;28;20083;-67
2022/10/28 06:05:09;;;;;;;14.80;6.43;;;14.90;84.10;;;;;;5015983;28;20112;-67
2022/10/28 06:07:35;;;;;;;12.77;6.55;;;14.90;84.00;;;;;;5012265;28;20033;-66
2022/10/28 06:10:02;;;;;;;11.43;6.00;;;14.90;84.00;;;;;;5027916;28;20025;-66
2022/10/28 06:12:28;;;;;;;11.43;5.85;;;14.90;84.00;;;;;;5021481;28;20057;-67
2022/10/28 06:14:53;;;;;;;13.38;6.35;;;14.90;83.90;;;;;;5028683;28;20446;-67
2022/10/28 06:17:19;;;;;;;12.38;5.80;;;14.90;83.90;;;;;;5030185;28;20076;-66
2022/10/28 06:19:44;;;;;;;10.32;6.15;;;14.90;83.90;;;;;;5020503;28;20144;-67
2022/10/28 06:22:11;;;;;;;12.73;5.70;;;14.90;84.50;;;;;;5023697;28;20534;-75
2022/10/28 06:24:36;;;;;;;11.55;5.95;;;14.90;83.80;;;;;;5017520;28;20524;-67
2022/10/28 06:27:02;;;;;;;10.07;5.82;;;14.90;83.80;;;;;;5020042;28;20029;-67
2022/10/28 06:29:28;;;;;;;9.98;5.80;;;14.90;84.40;;;;;;5024587;28;20041;-66
2022/10/28 06:31:53;;;;;;;11.88;6.15;;;14.90;83.70;;;;;;5000665;28;20024;-67
2022/10/28 06:34:19;;;;;;;12.40;6.20;;;14.90;83.70;;;;;;5017807;28;20021;-67
2022/10/28 06:36:45;;;;;;;13.35;6.38;;;14.90;83.70;;;;;;5011401;28;20025;-67
2022/10/28 06:39:10;;;;;;;11.77;5.88;;;14.90;83.70;;;;;;5010955;28;20338;-67
2022/10/28 06:41:36;;;;;;;12.75;5.80;;;14.90;83.60;;;;;;5012494;28;20030;-67
2022/10/28 06:44:02;;;;;;;11.90;5.97;;;14.90;83.60;;;;;;5010656;28;20022;-67
2022/10/28 06:46:27;;;;;;;12.75;6.60;;;14.90;83.60;;;;;;5016651;28;20033;-67
2022/10/28 06:48:53;;;;;;;13.10;6.13;;;14.90;83.60;;;;;;5020726;28;20394;-66
2022/10/28 06:51:19;;;;;;;12.18;6.22;;;14.90;83.50;;;;;;5004995;28;20030;-66
2022/10/28 06:53:49;;;;;;;11.13;5.30;;;14.90;83.60;;;;;;5016990;28;20148;-66
2022/10/28 06:56:15;;;;;;;10.45;6.28;;;14.90;83.50;;;;;;5016521;28;20037;-66
2022/10/28 06:58:41;;;;;;;12.23;6.30;;;14.90;83.50;;;;;;5019922;28;20030;-65
2022/10/28 07:01:07;;;;;;;10.25;5.90;;;15.00;83.50;;;;;;5015075;28;20135;-66
2022/10/28 07:03:32;;;;;;;12.15;6.65;;;14.90;83.50;;;;;;5016493;28;20034;-66
2022/10/28 07:05:59;;;;;;;11.80;6.35;;;15.00;83.60;;;;;;4999285;28;20079;-66
2022/10/28 07:08:26;;;;;;;14.88;6.22;;;15.00;83.60;;;;;;5014338;28;21434;-66
2022/10/28 07:10:57;;;;;;;11.90;6.65;;;15.00;83.60;;;;;;5017153;28;20054;-66
2022/10/28 07:13:23;;;;;;;10.80;6.03;;;15.00;83.60;;;;;;5015762;28;20112;-66
2022/10/28 07:15:54;;;;;;;11.18;6.30;;;15.00;83.70;;;;;;5019099;28;20379;-66
2022/10/28 07:18:20;;;;;;;11.55;5.88;;;15.10;83.70;;;;;;5014513;28;20349;-67
2022/10/28 07:20:46;;;;;;;13.60;6.65;;;15.10;84.40;;;;;;5014641;28;20026;-66
2022/10/28 07:23:12;;;;;;;14.82;7.90;;;15.10;83.70;;;;;;5015998;28;20037;-66
2022/10/28 07:25:38;;;;;;;14.85;8.13;;;15.10;83.70;;;;;;5032193;28;20036;-66
2022/10/28 07:28:03;;;;;;;12.93;8.35;;;15.10;83.70;;;;;;5027511;28;20114;-66
2022/10/28 07:30:30;;;;;;;14.50;8.10;;;15.20;83.80;;;;;;5030813;28;20053;-67
2022/10/28 07:32:59;;;;;;;13.95;8.20;;;15.20;83.80;;;;;;5029730;28;20064;-66
2022/10/28 07:35:26;;;;;;;13.90;8.15;;;15.20;83.70;;;;;;5030091;28;20044;-66
2022/10/28 07:37:51;;;;;;;12.88;7.45;;;15.30;83.80;;;;;;5030589;28;20053;-66
2022/10/28 07:40:19;;;;;;;15.70;7.65;;;15.30;83.70;;;;;;5016438;28;20394;-66
2022/10/28 07:42:45;;;;;;;14.20;7.00;;;15.30;83.70;;;;;;5016353;28;20446;-66
2022/10/28 07:45:11;;;;;;;15.13;7.20;;;15.40;83.80;;;;;;5015743;28;20095;-66
2022/10/28 07:47:36;;;;;;;14.10;6.85;;;15.40;83.80;;;;;;5012640;28;20177;-66
2022/10/28 07:50:03;;;;;;;15.32;8.00;;;15.40;83.90;;;;;;5012353;28;20382;-66
2022/10/28 07:52:28;;;;;;;12.50;7.10;;;15.40;83.90;;;;;;5014805;28;20032;-66
2022/10/28 07:54:54;;;;;;;13.27;6.53;;;15.40;83.90;;;;;;5016992;28;20034;-67
2022/10/28 07:57:19;;;;;;;12.63;7.13;;;15.50;83.90;;;;;;5012799;28;20029;-65
2022/10/28 07:59:45;;;;;;;13.88;7.07;;;15.50;83.90;;;;;;5014104;28;20478;-65
2022/10/28 08:02:20;;;;;;;11.40;6.53;;;15.60;84.00;;;;;;5013483;28;20034;-65
2022/10/28 08:04:46;;;;;;;13.70;7.30;;;15.60;84.00;;;;;;5016349;28;20041;-65
2022/10/28 08:07:12;;;;;;;13.23;7.57;;;15.60;84.00;;;;;;5016562;28;20034;-65
2022/10/28 08:09:38;;;;;;;17.05;7.78;;;15.60;84.00;;;;;;5015165;28;20087;-65
2022/10/28 08:12:05;;;;;;;16.45;8.48;;;15.70;84.10;;;;;;5013141;28;20454;-65
2022/10/28 08:14:30;;;;;;;14.18;8.55;;;15.80;84.20;;;;;;5020802;28;20033;-65
2022/10/28 08:16:56;;;;;;;15.15;9.05;;;15.80;84.20;;;;;;5026057;28;20055;-65
2022/10/28 08:19:22;;;;;;;16.50;9.40;;;15.90;84.30;;;;;;5030083;28;20136;-65
2022/10/28 08:21:47;;;;;;;15.80;8.00;;;16.00;84.30;;;;;;5029766;28;20513;-65
2022/10/28 08:24:13;;;;;;;15.93;8.48;;;16.00;84.20;;;;;;5040257;28;20409;-65
2022/10/28 08:26:39;;;;;;;13.48;7.53;;;16.10;84.20;;;;;;5028476;28;20026;-67
2022/10/28 08:29:05;;;;;;;14.55;7.95;;;16.20;84.30;;;;;;5029180;28;20447;-65
2022/10/28 08:31:32;;;;;;;15.20;7.15;;;16.20;84.20;;;;;;5015696;28;20510;-65
2022/10/28 08:33:58;;;;;;;14.90;7.53;;;16.40;84.20;;;;;;5012649;28;20382;-65
2022/10/28 08:36:24;;;;;;;11.60;6.50;;;16.50;84.20;;;;;;5026864;28;20040;-65
2022/10/28 08:38:49;;;;;;;14.50;6.97;;;16.60;84.10;;;;;;5031400;28;20028;-65
2022/10/28 08:41:18;;;;;;;14.70;6.78;;;16.60;84.10;;;;;;5015307;28;20026;-65
2022/10/28 08:44:21;;;;;;;14.43;6.82;;;16.70;84.10;;;;;;5014483;28;20056;-65
2022/10/28 08:47:16;;;;;;;12.02;6.15;;;16.80;84.00;;;;;;5014660;28;20041;-65
2022/10/28 08:49:45;;;;;;;14.85;7.32;;;16.80;84.00;;;;;;5030283;28;20042;-65
2022/10/28 08:52:32;;;;;;;15.20;6.82;;;16.90;84.00;;;;;;5015999;28;20033;-66
2022/10/28 08:55:12;;;;;;;11.50;6.55;;;17.00;84.00;;;;;;5011318;28;20050;-66
2022/10/28 08:57:54;;;;;;;14.45;7.10;;;17.10;83.80;;;;;;5015171;28;20040;-66
2022/10/28 09:00:24;;;;;;;11.88;7.35;;;17.20;83.90;;;;;;5013358;28;20138;-66
2022/10/28 09:03:07;;;;;;;11.50;6.38;;;17.30;83.80;;;;;;5030097;28;20037;-66
2022/10/28 09:05:33;;;;;;;16.85;7.13;;;17.40;83.80;;;;;;5015610;28;20045;-66
2022/10/28 09:08:01;;;;;;;13.32;6.38;;;17.40;83.50;;;;;;5014300;28;20042;-66
2022/10/28 09:10:58;;;;;;;11.45;7.72;;;17.50;83.40;;;;;;5014754;28;20482;-66
2022/10/28 09:13:50;;;;;;;13.82;6.93;;;17.70;83.30;;;;;;5011781;28;20167;-66
2022/10/28 09:16:34;;;;;;;;;;;17.80;83.20;;;;;;5023594;28;20049;-67
2022/10/28 09:19:16;;;;;;;12.68;7.10;;;17.80;82.80;;;;;;5027480;28;19924;-67
2022/10/28 09:21:56;;;;;;;;;;;18.00;82.60;;;;;;5012863;28;20030;-68
2022/10/28 09:24:35;;;;;;;12.70;5.18;;;18.20;82.30;;;;;;5012440;28;19967;-67
2022/10/28 09:27:25;;;;;;;13.88;5.38;;;18.30;82.10;;;;;;5013500;28;20045;-65
2022/10/28 09:30:05;;;;;;;10.50;4.85;;;18.50;81.90;;;;;;5013910;28;20038;-65
2022/10/28 09:32:37;;;;;;;11.20;5.68;;;18.70;81.50;;;;;;5012495;28;20025;-67
2022/10/28 09:35:08;;;;;;;;;;;18.90;81.10;;;;;;5012164;28;20030;-67
2022/10/28 09:37:39;;;;;;;12.80;4.78;;;19.10;80.90;;;;;;5013974;28;19963;-65
2022/10/28 09:40:20;;;;;;;12.77;5.20;;;19.10;80.70;;;;;;5011913;28;20237;-66
2022/10/28 09:43:00;;;;;;;;;;;19.20;80.50;;;;;;5001694;28;20072;-66
2022/10/28 09:45:29;;;;;;;8.75;4.65;;;19.20;80.40;;;;;;5012066;28;19909;-66
2022/10/28 09:48:25;;;;;;;12.55;5.38;;;19.30;80.20;;;;;;5013425;28;20045;-67
2022/10/28 09:50:53;;;;;;;13.77;5.50;;;19.40;79.90;;;;;;5017335;28;20025;-67
2022/10/28 09:53:41;;;;;;;12.23;4.75;;;19.50;79.80;;;;;;5012161;28;20038;-66
2022/10/28 09:56:08;;;;;;;11.38;5.47;;;19.60;79.50;;;;;;5007371;28;20038;-67
2022/10/28 09:58:35;;;;;;;14.40;5.72;;;19.70;79.40;;;;;;5013700;28;20390;-67
2022/10/28 10:01:03;;;;;;;11.40;5.53;;;19.80;79.10;;;;;;5013719;28;20057;-67
2022/10/28 10:03:30;;;;;;;12.35;5.28;;;19.90;79.00;;;;;;5015229;28;20469;-67
2022/10/28 10:06:01;;;;;;;10.27;4.72;;;19.90;78.80;;;;;;5013006;28;20112;-67
2022/10/28 10:08:30;;;;;;;14.18;6.25;;;19.80;78.70;;;;;;5029133;28;20037;-67
2022/10/28 10:11:14;;;;;;;17.08;5.70;;;19.70;78.90;;;;;;5014067;28;20074;-67
2022/10/28 10:13:42;;;;;;;12.57;5.43;;;19.70;79.10;;;;;;5008905;28;20033;-67
2022/10/28 10:16:22;;;;;;;13.23;5.68;;;19.70;79.10;;;;;;5020036;28;20044;-67
2022/10/28 10:18:52;;;;;;;9.85;4.82;;;19.70;79.10;;;;;;5029726;28;20056;-67
2022/10/28 10:21:44;;;;;;;12.55;5.25;;;19.90;78.90;;;;;;5028585;28;20041;-67
2022/10/28 10:24:22;;;;;;;13.55;5.90;;;20.00;78.70;;;;;;5036642;28;20042;-67
2022/10/28 10:26:47;;;;;;;14.75;5.32;;;20.00;78.40;;;;;;5016773;28;20037;-67
2022/10/28 10:29:13;;;;;;;12.60;5.20;;;20.00;78.40;;;;;;5014366;28;20022;-67
2022/10/28 10:31:39;;;;;;;12.65;5.30;;;20.10;78.40;;;;;;5019717;28;20427;-67
2022/10/28 10:34:06;;;;;;;13.27;4.93;;;20.10;78.20;;;;;;5018914;28;20022;-67
2022/10/28 10:36:33;;;;;;;10.68;5.40;;;20.20;78.00;;;;;;5033909;28;20018;-67
2022/10/28 10:39:01;;;;;;;14.27;5.88;;;20.30;78.40;;;;;;5018261;28;20512;-67
2022/10/28 10:41:35;;;;;;;12.82;5.93;;;20.40;77.50;;;;;;5032196;28;20088;-66
2022/10/28 10:44:01;;;;;;;14.07;6.00;;;20.40;77.30;;;;;;5016825;28;20042;-66
2022/10/28 10:46:26;;;;;;;12.18;6.00;;;20.40;77.40;;;;;;5017265;28;20358;-67
2022/10/28 10:49:13;;;;;;;11.88;6.13;;;20.40;77.50;;;;;;5017803;28;20060;-67
2022/10/28 10:51:50;;;;;;;14.32;5.65;;;20.50;77.30;;;;;;5019801;28;20021;-67
2022/10/28 10:54:16;;;;;;;13.65;5.10;;;20.50;77.20;;;;;;5017281;28;20046;-67
2022/10/28 10:56:42;;;;;;;11.18;5.00;;;20.50;77.00;;;;;;5016768;28;20406;-67
2022/10/28 10:59:30;;;;;;;11.00;4.97;;;20.60;77.00;;;;;;5031757;28;20469;-68
2022/10/28 11:01:57;;;;;;;12.35;4.90;;;20.60;76.70;;;;;;5018742;28;20390;-68
2022/10/28 11:04:26;;;;;;;10.50;4.93;;;20.60;76.70;;;;;;5017436;28;20026;-68
2022/10/28 11:06:54;;;;;;;14.20;5.40;;;20.70;76.40;;;;;;5015695;28;20034;-68
2022/10/28 11:09:36;;;;;;;14.68;4.82;;;20.80;76.10;;;;;;5017327;28;20052;-68
2022/10/28 11:12:37;;;;;;;12.50;4.70;;;20.80;75.80;;;;;;5016267;28;20080;-67
2022/10/28 11:15:15;;;;;;;;;;;20.80;75.50;;;;;;5006151;28;20109;-68
2022/10/28 11:17:57;;;;;;;12.90;5.03;;;20.80;75.80;;;;;;5013857;28;19909;-67
2022/10/28 11:20:29;;;;;;;12.90;4.35;;;20.80;75.60;;;;;;5016917;28;20379;-67
2022/10/28 11:23:18;;;;;;;9.27;4.35;;;20.90;75.60;;;;;;5012329;28;20037;-68
2022/10/28 11:25:52;;;;;;;10.75;4.78;;;20.90;75.10;;;;;;5016607;28;20030;-67
2022/10/28 11:28:36;;;;;;;12.32;4.43;;;20.90;75.10;;;;;;5016103;28;20121;-67
2022/10/28 11:31:51;;;;;;;11.20;4.50;;;20.90;74.90;;;;;;5017239;28;20048;-67
2022/10/28 11:34:35;;;;;;;11.13;4.35;;;20.90;74.80;;;;;;5007795;28;20474;-68
2022/10/28 11:37:20;;;;;;;12.07;4.88;;;20.80;74.90;;;;;;5031925;28;20030;-67
2022/10/28 11:40:14;;;;;;;9.82;4.30;;;20.80;74.80;;;;;;5017346;28;20022;-67
2022/10/28 11:42:56;;;;;;;12.10;4.32;;;20.80;74.70;;;;;;5017329;28;20070;-67
2022/10/28 11:45:41;;;;;;;11.27;4.30;;;20.80;74.60;;;;;;5016347;28;20539;-68
2022/10/28 11:48:16;;;;;;;10.57;4.55;;;20.90;74.40;;;;;;5016580;28;20339;-68
2022/10/28 11:51:23;;;;;;;12.55;4.70;;;21.00;74.40;;;;;;5012366;28;20030;-68
2022/10/28 11:54:11;;;;;;;11.52;4.38;;;21.00;74.20;;;;;;5010379;28;20053;-68
2022/10/28 11:56:44;;;;;;;12.55;4.70;;;21.00;74.00;;;;;;5014636;28;20400;-68
2022/10/28 11:59:48;;;;;;;14.13;4.25;;;21.00;74.10;;;;;;5010729;28;20083;-67
2022/10/28 12:02:37;;;;;;;13.85;5.03;;;21.00;73.90;;;;;;5008871;28;20336;-67
2022/10/28 12:05:25;;;;;;;8.98;4.47;;;21.00;73.80;;;;;;5015656;28;20030;-67
2022/10/28 12:08:06;;;;;;;10.52;4.05;;;21.10;73.80;;;;;;5016042;28;20125;-67
2022/10/28 12:10:56;;;;;;;11.85;4.82;;;21.10;73.80;;;;;;5024986;28;20041;-68
2022/10/28 12:13:28;;;;;;;9.57;4.22;;;21.10;73.60;;;;;;5000627;28;20034;-68
2022/10/28 12:16:00;;;;;;;;;;;21.10;73.60;;;;;;5006142;28;20034;-68
2022/10/28 12:18:50;;;;;;;10.30;4.20;;;21.10;73.80;;;;;;5004337;28;19921;-68
2022/10/28 12:21:28;;;;;;;11.45;3.90;;;21.00;73.60;;;;;;4999881;28;20105;-67
2022/10/28 12:23:56;;;;;;;11.75;4.95;;;21.00;73.70;;;;;;5004480;28;20038;-69
2022/10/28 12:26:45;;;;;;;11.18;4.38;;;21.00;73.60;;;;;;5001554;28;20143;-69
2022/10/28 12:29:19;;;;;;;13.35;5.07;;;21.00;73.60;;;;;;4998746;28;20049;-68
2022/10/28 12:31:50;;;;;;;10.07;4.53;;;21.10;73.60;;;;;;5013755;28;20164;-68
2022/10/28 12:34:23;;;;;;;12.75;5.18;;;21.10;73.70;;;;;;5014760;28;20037;-67
2022/10/28 12:37:17;;;;;;;14.85;4.43;;;21.10;73.90;;;;;;5011774;28;20029;-67
2022/10/28 12:40:00;;;;;;;12.77;5.65;;;21.20;74.00;;;;;;5017485;28;20070;-68
2022/10/28 12:43:02;;;;;;;14.75;4.43;;;21.20;74.00;;;;;;5015172;28;20029;-67
2022/10/28 12:45:30;;;;;;;;;;;21.20;73.80;;;;;;4997776;28;20042;-69
2022/10/28 12:48:22;;;;;;;13.43;4.88;;;21.20;73.80;;;;;;5030468;28;20353;-67
2022/10/28 12:51:12;;;;;;;11.35;3.78;;;21.30;73.60;;;;;;5009758;28;20113;-66
2022/10/28 12:54:13;;;;;;;8.35;3.35;;;21.30;73.40;;;;;;5013404;28;20382;-68
2022/10/28 12:56:47;;;;;;;7.97;3.92;;;21.30;73.30;;;;;;5012571;28;20121;-68
2022/10/28 12:59:29;;;;;;;14.60;3.70;;;21.30;73.30;;;;;;5011790;28;20026;-68
2022/10/28 13:01:59;;;;;;;17.23;5.38;;;21.30;73.20;;;;;;5015459;28;20100;-68